气象报文与情报通波
气象报文机场: RJTT
ADDS - METARS form results

(1211 UTC 18 November 2019)
数据来源 http://aviationweather.gov/metar/data/
 
METAR text: RJTT 181200Z 21017KT 9999 -SHRA FEW020 BKN030 22/17 Q1009 TEMPO 21030G40KT RMK 1CU020 7CU030 A2982
Conditions at: RJTT (TOKYO INTL AIRPO, JP) observed 1200 UTC 18 November 2019
Temperature: 22.0°C (72°F)
Dewpoint: 17.0°C (63°F) [RH = 73%]
Pressure (altimeter): 29.79 inches Hg (1009.0 mb)
Winds: from the SSW (210 degrees) at 20 MPH (17 knots; 8.7 m/s)
Visibility: 6 or more miles (10+ km)
Ceiling: 3000 feet AGL
Clouds: few clouds at 2000 feet AGL
broken clouds at 3000 feet AGL
Weather: -SHRA  (light rain showers)

METAR text: RJTT 181137Z 20019G29KT 9999 FEW020 BKN030 BKN050 21/17 Q1010 RMK 1CU020 5CU030 7SC050 A2983
Conditions at: RJTT (TOKYO INTL AIRPO, JP) observed 1137 UTC 18 November 2019
Temperature: 21.0°C (70°F)
Dewpoint: 17.0°C (63°F) [RH = 78%]
Pressure (altimeter): 29.82 inches Hg (1010.0 mb)
Winds: from the SSW (200 degrees) at 22 MPH (19 knots; 9.8 m/s)
gusting to 33 MPH (29 knots; 14.9 m/s)
Visibility: 6 or more miles (10+ km)
Ceiling: 3000 feet AGL
Clouds: few clouds at 2000 feet AGL
broken clouds at 3000 feet AGL
broken clouds at 5000 feet AGL
Weather: no significant weather observed at this time

METAR text: RJTT 181130Z 20020KT 9999 FEW020 SCT030 BKN050 21/17 Q1010 TEMPO 21030G40KT RMK 1CU020 4CU030 6SC050 A2983
Conditions at: RJTT (TOKYO INTL AIRPO, JP) observed 1130 UTC 18 November 2019
Temperature: 21.0°C (70°F)
Dewpoint: 17.0°C (63°F) [RH = 78%]
Pressure (altimeter): 29.82 inches Hg (1010.0 mb)
Winds: from the SSW (200 degrees) at 23 MPH (20 knots; 10.3 m/s)
Visibility: 6 or more miles (10+ km)
Ceiling: 5000 feet AGL
Clouds: few clouds at 2000 feet AGL
scattered clouds at 3000 feet AGL
broken clouds at 5000 feet AGL
Weather: no significant weather observed at this time

METAR text: RJTT 181113Z 20021G31KT 9999 FEW030 SCT050 BKN/// 21/16 Q1009 RMK 1CU030 3SC050 A2982
Conditions at: RJTT (TOKYO INTL AIRPO, JP) observed 1113 UTC 18 November 2019
Temperature: 21.0°C (70°F)
Dewpoint: 16.0°C (61°F) [RH = 73%]
Pressure (altimeter): 29.79 inches Hg (1009.0 mb)
Winds: from the SSW (200 degrees) at 24 MPH (21 knots; 10.8 m/s)
gusting to 36 MPH (31 knots; 15.9 m/s)
Visibility: 6 or more miles (10+ km)
Ceiling: at least 12,000 feet AGL
Clouds: few clouds at 3000 feet AGL
scattered clouds at 5000 feet AGL
Weather: no significant weather observed at this time

Forecast for: RJTT (TOKYO INTL AIRPO, JP)
Text: TAF RJTT 181106Z 1812/1918 21025KT 8000 -SHRA FEW010 BKN015
Forecast period: 1200 to 1600 UTC 18 November 2019
Forecast type: FROM: standard forecast or significant change
Winds: from the SSW (210 degrees) at 29 MPH (25 knots; 12.9 m/s)
Visibility: 5 miles (8 km)
Ceiling: 1500 feet AGL
Clouds: few clouds at 1000 feet AGL
broken clouds at 1500 feet AGL
Weather: -SHRA  (light rain showers)
Text: TEMPO 1812/1815 21034G44KT
Forecast period: 1200 to 1500 UTC 18 November 2019
Forecast type: TEMPORARY: The following changes expected for less than half the time period
Winds: from the SSW (210 degrees) at 39 MPH (34 knots; 17.5 m/s)
gusting to 51 MPH (44 knots; 22.6 m/s)
Visibility: missing
Ceiling: unknown
Clouds: missing
Weather: no significant weather forecast for this period
Text: TEMPO 1815/1817 21024G34KT
Forecast period: 1500 to 1700 UTC 18 November 2019
Forecast type: TEMPORARY: The following changes expected for less than half the time period
Winds: from the SSW (210 degrees) at 28 MPH (24 knots; 12.3 m/s)
gusting to 39 MPH (34 knots; 17.5 m/s)
Visibility: missing
Ceiling: unknown
Clouds: missing
Weather: no significant weather forecast for this period
Text: BECMG 1816/1818 35006KT
Forecast period: 1600 UTC 18 November 2019 to 0600 UTC 19 November 2019
Forecast type: BECOMING: Conditions expected to become as follows by 1800 UTC 18 November 2019
Winds: from the N (350 degrees) at 7 MPH (6 knots; 3.1 m/s)
Visibility: 5 miles (8 km)
Ceiling: 1500 feet AGL
Clouds: few clouds at 1000 feet AGL
broken clouds at 1500 feet AGL
Weather: -SHRA  (light rain showers)
Text: TEMPO 1817/1820 3000 SHRA BR FEW005 BKN008
Forecast period: 1700 to 2000 UTC 18 November 2019
Forecast type: TEMPORARY: The following changes expected for less than half the time period
Visibility: 1.86 miles (2.99 km)
Ceiling: 800 feet AGL
Clouds: few clouds at 500 feet AGL
broken clouds at 800 feet AGL
Weather: SHRA BR  (rain showers, mist)
Text: BECMG 1906/1909 35016KT
Forecast period: 0600 to 1800 UTC 19 November 2019
Forecast type: BECOMING: Conditions expected to become as follows by 0900 UTC 19 November 2019
Winds: from the N (350 degrees) at 18 MPH (16 knots; 8.2 m/s)
Visibility: 5 miles (8 km)
Ceiling: 1500 feet AGL
Clouds: few clouds at 1000 feet AGL
broken clouds at 1500 feet AGL
Weather: -SHRA  (light rain showers)

 机场地图

 跑道信息
跑道 04 跑道长度 8200 ft 跑道宽度 200 ft
跑道标高 19 ft 跑道內移距离 0 ft 跑道磁航向 35
跑道 22 跑道长度 8200 ft 跑道宽度 200 ft
跑道标高 35 ft 跑道內移距离 0 ft 跑道磁航向 215
跑道 05 跑道长度 8200 ft 跑道宽度 200 ft
跑道标高 46 ft 跑道內移距离 0 ft 跑道磁航向 57
跑道 23 跑道长度 8200 ft 跑道宽度 200 ft
跑道标高 55 ft 跑道內移距离 0 ft 跑道磁航向 223
跑道 16L 跑道长度 9840 ft 跑道宽度 200 ft
跑道标高 22 ft 跑道內移距离 0 ft 跑道磁航向 150
跑道 34R 跑道长度 9840 ft 跑道宽度 200 ft
跑道标高 20 ft 跑道內移距离 0 ft 跑道磁航向 330
跑道 16R 跑道长度 9840 ft 跑道宽度 200 ft
跑道标高 20 ft 跑道內移距离 0 ft 跑道磁航向 150
跑道 34L 跑道长度 9840 ft 跑道宽度 200 ft
跑道标高 20 ft 跑道內移距离 0 ft 跑道磁航向 330

 机场频率
类型 A/G 名称 NORTH PACI 频率 126.9 MHZ
类型 APP 名称 APP 频率 119.1 MHZ
类型 ATIS 名称 ATIS 频率 128.8 MHZ
类型 CLR 名称 CLNC DEL 频率 121.825 MHZ
类型 DEP 名称 频率 120.8 MHZ
类型 DEP 名称 DEP 频率 126 MHZ
类型 GND 名称 频率 118.225 MHZ
类型 GND 名称 频率 121.625 MHZ
类型 GND 名称 GND 频率 121.7 MHZ
类型 GND 名称 频率 121.975 MHZ
类型 TCA 名称 频率 119.45 MHZ
类型 TCA 名称 TCA 频率 124.75 MHZ
类型 TWR 名称 TWR 频率 118.1 MHZ
类型 TWR 名称 频率 118.575 MHZ
类型 TWR 名称 频率 118.725 MHZ
类型 TWR 名称 频率 124.35 MHZ

 机场附近导航设备
类型 NDB 名称 Haneda 频率 337 KHZ
类型 VOR-DME 名称 Haneda 频率 112200 KHZ
类型 VOR-DME 名称 Kohtoh 频率 115000 KHZ



© FlySim.cn中国最大航空飞行视频网版权所有